sensor_id;sensor_type;location;lat;lon;timestamp;pressure;altitude;pressure_sealevel;temperature;humidity
68986;BME280;56035;37.534;-122.308;2023-05-25T00:00:32;100921.78;;;15.81;100.00
68986;BME280;56035;37.534;-122.308;2023-05-25T00:03:00;100922.00;;;15.69;100.00
68986;BME280;56035;37.534;-122.308;2023-05-25T00:05:27;100923.13;;;15.68;100.00
68986;BME280;56035;37.534;-122.308;2023-05-25T00:07:54;100911.94;;;15.63;100.00
68986;BME280;56035;37.534;-122.308;2023-05-25T00:10:20;100913.06;;;15.62;100.00
68986;BME280;56035;37.534;-122.308;2023-05-25T00:12:46;100912.72;;;15.43;100.00
68986;BME280;56035;37.534;-122.308;2023-05-25T00:15:12;100907.69;;;15.35;100.00
68986;BME280;56035;37.534;-122.308;2023-05-25T00:17:38;100906.56;;;15.36;100.00
68986;BME280;56035;37.534;-122.308;2023-05-25T00:20:05;100913.75;;;15.27;100.00
68986;BME280;56035;37.534;-122.308;2023-05-25T00:22:32;100916.50;;;15.27;100.00
68986;BME280;56035;37.534;-122.308;2023-05-25T00:24:58;100908.44;;;15.15;100.00
68986;BME280;56035;37.534;-122.308;2023-05-25T00:27:24;100908.63;;;15.03;100.00
68986;BME280;56035;37.534;-122.308;2023-05-25T00:29:50;100913.63;;;15.06;100.00
68986;BME280;56035;37.534;-122.308;2023-05-25T00:32:16;100913.56;;;14.96;100.00
68986;BME280;56035;37.534;-122.308;2023-05-25T00:34:41;100907.44;;;14.89;100.00
68986;BME280;56035;37.534;-122.308;2023-05-25T00:37:07;100900.66;;;14.74;100.00
68986;BME280;56035;37.534;-122.308;2023-05-25T00:39:33;100909.56;;;14.77;100.00
68986;BME280;56035;37.534;-122.308;2023-05-25T00:41:59;100901.47;;;14.70;100.00
68986;BME280;56035;37.534;-122.308;2023-05-25T00:44:26;100911.69;;;14.64;100.00
68986;BME280;56035;37.534;-122.308;2023-05-25T00:46:52;100905.53;;;14.57;100.00
68986;BME280;56035;37.534;-122.308;2023-05-25T00:49:19;100912.31;;;14.44;100.00
68986;BME280;56035;37.534;-122.308;2023-05-25T00:51:46;100904.28;;;14.43;100.00
68986;BME280;56035;37.534;-122.308;2023-05-25T00:54:15;100904.81;;;14.40;100.00
68986;BME280;56035;37.534;-122.308;2023-05-25T00:56:50;100904.94;;;14.23;100.00
68986;BME280;56035;37.534;-122.308;2023-05-25T00:59:18;100901.81;;;14.14;100.00
68986;BME280;56035;37.534;-122.308;2023-05-25T01:01:45;100897.59;;;14.07;100.00
68986;BME280;56035;37.534;-122.308;2023-05-25T01:04:12;100892.19;;;13.95;100.00
68986;BME280;56035;37.534;-122.308;2023-05-25T01:06:41;100902.69;;;13.93;100.00
68986;BME280;56035;37.534;-122.308;2023-05-25T01:09:07;100899.88;;;13.88;100.00
68986;BME280;56035;37.534;-122.308;2023-05-25T01:11:35;100898.78;;;13.89;100.00
68986;BME280;56035;37.534;-122.308;2023-05-25T01:14:01;100892.59;;;13.81;100.00
68986;BME280;56035;37.534;-122.308;2023-05-25T01:16:27;100884.00;;;13.78;100.00
68986;BME280;56035;37.534;-122.308;2023-05-25T01:18:53;100894.56;;;13.81;100.00
68986;BME280;56035;37.534;-122.308;2023-05-25T01:23:56;100875.88;;;13.71;100.00
68986;BME280;56035;37.534;-122.308;2023-05-25T01:26:25;100888.47;;;13.57;100.00
68986;BME280;56035;37.534;-122.308;2023-05-25T01:28:52;100885.38;;;13.53;100.00
68986;BME280;56035;37.534;-122.308;2023-05-25T01:31:20;100885.03;;;13.50;100.00
68986;BME280;56035;37.534;-122.308;2023-05-25T01:33:48;100896.81;;;13.40;100.00
68986;BME280;56035;37.534;-122.308;2023-05-25T01:36:14;100904.75;;;13.31;100.00
68986;BME280;56035;37.534;-122.308;2023-05-25T01:38:40;100897.97;;;13.22;100.00
68986;BME280;56035;37.534;-122.308;2023-05-25T01:41:06;100898.72;;;13.18;100.00
68986;BME280;56035;37.534;-122.308;2023-05-25T01:43:32;100892.53;;;13.10;100.00
68986;BME280;56035;37.534;-122.308;2023-05-25T01:46:01;100893.91;;;13.08;100.00
68986;BME280;56035;37.534;-122.308;2023-05-25T01:50:59;100902.31;;;12.96;100.00
68986;BME280;56035;37.534;-122.308;2023-05-25T01:53:30;100888.84;;;12.83;100.00
68986;BME280;56035;37.534;-122.308;2023-05-25T01:56:02;100896.81;;;12.79;100.00
68986;BME280;56035;37.534;-122.308;2023-05-25T01:58:32;100891.69;;;12.71;100.00
68986;BME280;56035;37.534;-122.308;2023-05-25T02:01:00;100894.31;;;12.61;100.00
68986;BME280;56035;37.534;-122.308;2023-05-25T02:03:26;100879.06;;;12.58;100.00
68986;BME280;56035;37.534;-122.308;2023-05-25T02:05:52;100887.03;;;12.55;100.00
68986;BME280;56035;37.534;-122.308;2023-05-25T02:08:19;100891.66;;;12.49;100.00
68986;BME280;56035;37.534;-122.308;2023-05-25T02:10:45;100884.59;;;12.41;100.00
68986;BME280;56035;37.534;-122.308;2023-05-25T02:13:11;100895.81;;;12.35;100.00
68986;BME280;56035;37.534;-122.308;2023-05-25T02:15:37;100891.56;;;12.27;100.00
68986;BME280;56035;37.534;-122.308;2023-05-25T02:18:03;100888.13;;;12.20;100.00
68986;BME280;56035;37.534;-122.308;2023-05-25T02:20:30;100898.13;;;12.09;100.00
68986;BME280;56035;37.534;-122.308;2023-05-25T02:22:56;100905.34;;;12.10;100.00
68986;BME280;56035;37.534;-122.308;2023-05-25T02:25:22;100907.94;;;12.00;100.00
68986;BME280;56035;37.534;-122.308;2023-05-25T02:27:47;100910.59;;;11.95;100.00
68986;BME280;56035;37.534;-122.308;2023-05-25T02:30:13;100913.50;;;11.88;100.00
68986;BME280;56035;37.534;-122.308;2023-05-25T02:32:39;100908.47;;;11.85;100.00
68986;BME280;56035;37.534;-122.308;2023-05-25T02:35:05;100907.50;;;11.80;100.00
68986;BME280;56035;37.534;-122.308;2023-05-25T02:37:31;100900.19;;;11.73;100.00
68986;BME280;56035;37.534;-122.308;2023-05-25T02:39:58;100910.53;;;11.66;100.00
68986;BME280;56035;37.534;-122.308;2023-05-25T02:42:23;100907.09;;;11.59;100.00
68986;BME280;56035;37.534;-122.308;2023-05-25T02:44:49;100913.94;;;11.57;100.00
68986;BME280;56035;37.534;-122.308;2023-05-25T02:47:16;100910.00;;;11.53;100.00
68986;BME280;56035;37.534;-122.308;2023-05-25T02:49:45;100918.16;;;11.47;100.00
68986;BME280;56035;37.534;-122.308;2023-05-25T02:52:11;100924.19;;;11.44;100.00
68986;BME280;56035;37.534;-122.308;2023-05-25T02:54:38;100918.78;;;11.38;100.00
68986;BME280;56035;37.534;-122.308;2023-05-25T02:57:04;100926.13;;;11.32;100.00
68986;BME280;56035;37.534;-122.308;2023-05-25T02:59:30;100931.31;;;11.29;100.00
68986;BME280;56035;37.534;-122.308;2023-05-25T03:01:57;100928.19;;;11.25;100.00
68986;BME280;56035;37.534;-122.308;2023-05-25T03:04:23;100935.25;;;11.21;100.00
68986;BME280;56035;37.534;-122.308;2023-05-25T03:06:48;100937.06;;;11.15;100.00
68986;BME280;56035;37.534;-122.308;2023-05-25T03:09:14;100943.28;;;11.11;100.00
68986;BME280;56035;37.534;-122.308;2023-05-25T03:11:40;100949.28;;;11.08;100.00
68986;BME280;56035;37.534;-122.308;2023-05-25T03:14:06;100955.28;;;11.05;100.00
68986;BME280;56035;37.534;-122.308;2023-05-25T03:16:32;100952.19;;;11.01;100.00
68986;BME280;56035;37.534;-122.308;2023-05-25T03:19:03;100947.63;;;10.95;100.00
68986;BME280;56035;37.534;-122.308;2023-05-25T03:21:30;100951.94;;;10.91;100.00
68986;BME280;56035;37.534;-122.308;2023-05-25T03:23:56;100950.75;;;10.87;100.00
68986;BME280;56035;37.534;-122.308;2023-05-25T03:26:22;100948.69;;;10.82;100.00
68986;BME280;56035;37.534;-122.308;2023-05-25T03:28:50;100952.78;;;10.80;100.00
68986;BME280;56035;37.534;-122.308;2023-05-25T03:31:16;100950.16;;;10.73;100.00
68986;BME280;56035;37.534;-122.308;2023-05-25T03:33:42;100958.06;;;10.69;100.00
68986;BME280;56035;37.534;-122.308;2023-05-25T03:36:08;100957.91;;;10.64;100.00
68986;BME280;56035;37.534;-122.308;2023-05-25T03:38:35;100961.41;;;10.60;100.00
68986;BME280;56035;37.534;-122.308;2023-05-25T03:41:01;100964.38;;;10.58;100.00
68986;BME280;56035;37.534;-122.308;2023-05-25T03:43:27;100960.44;;;10.54;100.00
68986;BME280;56035;37.534;-122.308;2023-05-25T03:45:53;100968.06;;;10.52;100.00
68986;BME280;56035;37.534;-122.308;2023-05-25T03:48:18;100971.31;;;10.49;100.00
68986;BME280;56035;37.534;-122.308;2023-05-25T03:50:44;100979.19;;;10.45;100.00
68986;BME280;56035;37.534;-122.308;2023-05-25T03:53:13;100975.25;;;10.41;100.00
68986;BME280;56035;37.534;-122.308;2023-05-25T03:55:38;100979.91;;;10.41;100.00
68986;BME280;56035;37.534;-122.308;2023-05-25T03:58:04;100989.25;;;10.40;100.00
68986;BME280;56035;37.534;-122.308;2023-05-25T04:00:30;100982.31;;;10.37;100.00
68986;BME280;56035;37.534;-122.308;2023-05-25T04:02:56;100986.59;;;10.33;100.00
68986;BME280;56035;37.534;-122.308;2023-05-25T04:05:23;100986.00;;;10.31;100.00
68986;BME280;56035;37.534;-122.308;2023-05-25T04:07:48;100976.06;;;10.30;100.00
68986;BME280;56035;37.534;-122.308;2023-05-25T04:10:14;100986.47;;;10.28;100.00
68986;BME280;56035;37.534;-122.308;2023-05-25T04:12:40;100991.34;;;10.26;100.00
68986;BME280;56035;37.534;-122.308;2023-05-25T04:15:06;100984.16;;;10.25;100.00
68986;BME280;56035;37.534;-122.308;2023-05-25T04:17:33;100982.47;;;10.24;100.00
68986;BME280;56035;37.534;-122.308;2023-05-25T04:20:00;100992.63;;;10.23;100.00
68986;BME280;56035;37.534;-122.308;2023-05-25T04:22:26;100990.38;;;10.20;100.00
68986;BME280;56035;37.534;-122.308;2023-05-25T04:24:52;100989.75;;;10.18;100.00
68986;BME280;56035;37.534;-122.308;2023-05-25T04:27:18;100989.13;;;10.16;100.00
68986;BME280;56035;37.534;-122.308;2023-05-25T04:29:45;100997.03;;;10.13;100.00
68986;BME280;56035;37.534;-122.308;2023-05-25T04:32:10;101001.31;;;10.08;100.00
68986;BME280;56035;37.534;-122.308;2023-05-25T04:34:38;101000.25;;;10.09;100.00
68986;BME280;56035;37.534;-122.308;2023-05-25T04:37:06;101003.47;;;10.06;100.00
68986;BME280;56035;37.534;-122.308;2023-05-25T04:39:33;101005.38;;;10.06;100.00
68986;BME280;56035;37.534;-122.308;2023-05-25T04:41:59;101004.53;;;10.05;100.00
68986;BME280;56035;37.534;-122.308;2023-05-25T04:44:29;101000.34;;;10.03;100.00
68986;BME280;56035;37.534;-122.308;2023-05-25T04:46:55;101001.63;;;10.00;100.00
68986;BME280;56035;37.534;-122.308;2023-05-25T04:49:21;101009.31;;;9.98;100.00
68986;BME280;56035;37.534;-122.308;2023-05-25T04:51:47;101002.97;;;9.98;100.00
68986;BME280;56035;37.534;-122.308;2023-05-25T04:54:13;101017.78;;;9.97;100.00
68986;BME280;56035;37.534;-122.308;2023-05-25T04:56:38;101007.63;;;9.97;100.00
68986;BME280;56035;37.534;-122.308;2023-05-25T04:59:04;101008.69;;;9.96;100.00
68986;BME280;56035;37.534;-122.308;2023-05-25T05:01:31;101014.44;;;9.95;100.00
68986;BME280;56035;37.534;-122.308;2023-05-25T05:03:58;101005.34;;;9.94;100.00
68986;BME280;56035;37.534;-122.308;2023-05-25T05:06:24;101011.91;;;9.93;100.00
68986;BME280;56035;37.534;-122.308;2023-05-25T05:08:53;101012.97;;;9.92;100.00
68986;BME280;56035;37.534;-122.308;2023-05-25T05:11:20;101004.94;;;9.91;100.00
68986;BME280;56035;37.534;-122.308;2023-05-25T05:13:47;101016.19;;;9.89;100.00
68986;BME280;56035;37.534;-122.308;2023-05-25T05:16:13;101020.63;;;9.90;100.00
68986;BME280;56035;37.534;-122.308;2023-05-25T05:18:39;101018.31;;;9.87;100.00
68986;BME280;56035;37.534;-122.308;2023-05-25T05:21:05;101020.25;;;9.87;100.00
68986;BME280;56035;37.534;-122.308;2023-05-25T05:23:30;101022.16;;;9.86;100.00
68986;BME280;56035;37.534;-122.308;2023-05-25T05:25:58;101024.91;;;9.86;100.00
68986;BME280;56035;37.534;-122.308;2023-05-25T05:28:25;101019.88;;;9.83;100.00
68986;BME280;56035;37.534;-122.308;2023-05-25T05:30:52;101019.50;;;9.79;100.00
68986;BME280;56035;37.534;-122.308;2023-05-25T05:33:18;101022.69;;;9.76;100.00
68986;BME280;56035;37.534;-122.308;2023-05-25T05:35:43;101019.72;;;9.78;100.00
68986;BME280;56035;37.534;-122.308;2023-05-25T05:38:10;101029.03;;;9.77;100.00
68986;BME280;56035;37.534;-122.308;2023-05-25T05:40:35;101018.50;;;9.74;100.00
68986;BME280;56035;37.534;-122.308;2023-05-25T05:43:01;101023.53;;;9.77;100.00
68986;BME280;56035;37.534;-122.308;2023-05-25T05:45:27;101027.38;;;9.76;100.00
68986;BME280;56035;37.534;-122.308;2023-05-25T05:47:53;101036.69;;;9.75;100.00
68986;BME280;56035;37.534;-122.308;2023-05-25T05:50:18;101028.91;;;9.72;100.00
68986;BME280;56035;37.534;-122.308;2023-05-25T05:52:44;101026.75;;;9.74;100.00
68986;BME280;56035;37.534;-122.308;2023-05-25T05:55:10;101025.44;;;9.76;100.00
68986;BME280;56035;37.534;-122.308;2023-05-25T05:57:36;101032.25;;;9.74;100.00
68986;BME280;56035;37.534;-122.308;2023-05-25T06:00:02;101037.16;;;9.72;100.00
68986;BME280;56035;37.534;-122.308;2023-05-25T06:02:31;101027.66;;;9.68;100.00
68986;BME280;56035;37.534;-122.308;2023-05-25T06:04:57;101035.47;;;9.71;100.00
68986;BME280;56035;37.534;-122.308;2023-05-25T06:07:22;101028.53;;;9.68;100.00
68986;BME280;56035;37.534;-122.308;2023-05-25T06:09:48;101026.81;;;9.67;100.00
68986;BME280;56035;37.534;-122.308;2023-05-25T06:12:14;101031.28;;;9.68;100.00
68986;BME280;56035;37.534;-122.308;2023-05-25T06:14:40;101031.50;;;9.67;100.00
68986;BME280;56035;37.534;-122.308;2023-05-25T06:17:06;101033.78;;;9.70;100.00
68986;BME280;56035;37.534;-122.308;2023-05-25T06:19:32;101029.94;;;9.71;100.00
68986;BME280;56035;37.534;-122.308;2023-05-25T06:21:58;101024.00;;;9.74;100.00
68986;BME280;56035;37.534;-122.308;2023-05-25T06:24:23;101024.00;;;9.74;100.00
68986;BME280;56035;37.534;-122.308;2023-05-25T06:26:49;101024.63;;;9.76;100.00
68986;BME280;56035;37.534;-122.308;2023-05-25T06:29:15;101023.31;;;9.78;100.00
68986;BME280;56035;37.534;-122.308;2023-05-25T06:31:41;101026.91;;;9.79;100.00
68986;BME280;56035;37.534;-122.308;2023-05-25T06:34:07;101030.28;;;9.81;100.00
68986;BME280;56035;37.534;-122.308;2023-05-25T06:36:33;101030.03;;;9.82;100.00
68986;BME280;56035;37.534;-122.308;2023-05-25T06:38:58;101035.91;;;9.86;100.00
68986;BME280;56035;37.534;-122.308;2023-05-25T06:41:24;101033.16;;;9.86;100.00
68986;BME280;56035;37.534;-122.308;2023-05-25T06:43:50;101034.84;;;9.87;100.00
68986;BME280;56035;37.534;-122.308;2023-05-25T06:46:16;101032.69;;;9.89;100.00
68986;BME280;56035;37.534;-122.308;2023-05-25T06:48:42;101033.69;;;9.95;100.00
68986;BME280;56035;37.534;-122.308;2023-05-25T06:51:12;101030.25;;;9.99;100.00
68986;BME280;56035;37.534;-122.308;2023-05-25T06:53:38;101032.53;;;10.02;100.00
68986;BME280;56035;37.534;-122.308;2023-05-25T06:56:07;101037.56;;;10.05;100.00
68986;BME280;56035;37.534;-122.308;2023-05-25T06:58:33;101028.03;;;10.08;100.00
68986;BME280;56035;37.534;-122.308;2023-05-25T07:00:59;101027.78;;;10.09;100.00
68986;BME280;56035;37.534;-122.308;2023-05-25T07:03:25;101030.91;;;10.13;100.00
68986;BME280;56035;37.534;-122.308;2023-05-25T07:05:51;101042.28;;;10.17;100.00
68986;BME280;56035;37.534;-122.308;2023-05-25T07:08:17;101041.81;;;10.20;100.00
68986;BME280;56035;37.534;-122.308;2023-05-25T07:10:43;101040.31;;;10.24;100.00
68986;BME280;56035;37.534;-122.308;2023-05-25T07:13:09;101039.22;;;10.25;100.00
68986;BME280;56035;37.534;-122.308;2023-05-25T07:15:39;101041.53;;;10.28;100.00
68986;BME280;56035;37.534;-122.308;2023-05-25T07:18:05;101038.78;;;10.28;100.00
68986;BME280;56035;37.534;-122.308;2023-05-25T07:20:31;101040.69;;;10.27;100.00
68986;BME280;56035;37.534;-122.308;2023-05-25T07:22:58;101023.78;;;10.24;100.00
68986;BME280;56035;37.534;-122.308;2023-05-25T07:25:24;101024.00;;;10.22;100.00
68986;BME280;56035;37.534;-122.308;2023-05-25T07:27:50;101027.59;;;10.23;100.00
68986;BME280;56035;37.534;-122.308;2023-05-25T07:30:22;101024.00;;;10.22;100.00
68986;BME280;56035;37.534;-122.308;2023-05-25T07:32:48;101014.91;;;10.22;100.00
68986;BME280;56035;37.534;-122.308;2023-05-25T07:35:14;101012.78;;;10.24;100.00
68986;BME280;56035;37.534;-122.308;2023-05-25T07:37:41;101018.03;;;10.25;100.00
68986;BME280;56035;37.534;-122.308;2023-05-25T07:40:07;101010.63;;;10.26;100.00
68986;BME280;56035;37.534;-122.308;2023-05-25T07:42:33;101005.56;;;10.23;100.00
68986;BME280;56035;37.534;-122.308;2023-05-25T07:45:00;101015.38;;;10.19;100.00
68986;BME280;56035;37.534;-122.308;2023-05-25T07:47:26;101010.56;;;10.14;100.00
68986;BME280;56035;37.534;-122.308;2023-05-25T07:49:54;101015.09;;;10.08;100.00
68986;BME280;56035;37.534;-122.308;2023-05-25T07:52:20;101011.34;;;10.03;100.00
68986;BME280;56035;37.534;-122.308;2023-05-25T07:54:46;101001.03;;;9.98;100.00
68986;BME280;56035;37.534;-122.308;2023-05-25T07:57:12;101004.25;;;9.95;100.00
68986;BME280;56035;37.534;-122.308;2023-05-25T07:59:37;101006.63;;;9.92;100.00
68986;BME280;56035;37.534;-122.308;2023-05-25T08:02:03;101006.03;;;9.90;100.00
68986;BME280;56035;37.534;-122.308;2023-05-25T08:04:30;100988.28;;;9.85;100.00
68986;BME280;56035;37.534;-122.308;2023-05-25T08:06:57;100994.50;;;9.81;100.00
68986;BME280;56035;37.534;-122.308;2023-05-25T08:09:23;100993.66;;;9.80;100.00
68986;BME280;56035;37.534;-122.308;2023-05-25T08:11:49;100987.75;;;9.77;100.00
68986;BME280;56035;37.534;-122.308;2023-05-25T08:14:15;100986.56;;;9.73;100.00
68986;BME280;56035;37.534;-122.308;2023-05-25T08:16:42;100983.81;;;9.73;100.00
68986;BME280;56035;37.534;-122.308;2023-05-25T08:19:08;100977.84;;;9.76;100.00
68986;BME280;56035;37.534;-122.308;2023-05-25T08:21:33;100987.63;;;9.72;100.00
68986;BME280;56035;37.534;-122.308;2023-05-25T08:24:01;100988.69;;;9.71;100.00
68986;BME280;56035;37.534;-122.308;2023-05-25T08:26:32;100980.44;;;9.71;100.00
68986;BME280;56035;37.534;-122.308;2023-05-25T08:29:01;100981.31;;;9.71;100.00
68986;BME280;56035;37.534;-122.308;2023-05-25T08:31:27;100969.88;;;9.68;100.00
68986;BME280;56035;37.534;-122.308;2023-05-25T08:33:53;100988.56;;;9.66;100.00
68986;BME280;56035;37.534;-122.308;2023-05-25T08:36:18;100979.69;;;9.64;100.00
68986;BME280;56035;37.534;-122.308;2023-05-25T08:38:44;100977.19;;;9.62;100.00
68986;BME280;56035;37.534;-122.308;2023-05-25T08:41:10;100981.22;;;9.59;100.00
68986;BME280;56035;37.534;-122.308;2023-05-25T08:43:36;100981.22;;;9.59;100.00
68986;BME280;56035;37.534;-122.308;2023-05-25T08:46:05;100978.47;;;9.59;100.00
68986;BME280;56035;37.534;-122.308;2023-05-25T08:48:32;100977.38;;;9.60;100.00
68986;BME280;56035;37.534;-122.308;2023-05-25T08:51:00;100970.84;;;9.61;100.00
68986;BME280;56035;37.534;-122.308;2023-05-25T08:53:27;100969.13;;;9.60;100.00
68986;BME280;56035;37.534;-122.308;2023-05-25T08:55:55;100977.84;;;9.57;100.00
68986;BME280;56035;37.534;-122.308;2023-05-25T08:58:28;100968.53;;;9.58;100.00
68986;BME280;56035;37.534;-122.308;2023-05-25T09:00:56;100966.25;;;9.55;100.00
68986;BME280;56035;37.534;-122.308;2023-05-25T09:03:23;100954.19;;;9.56;100.00
68986;BME280;56035;37.534;-122.308;2023-05-25T09:05:49;100963.06;;;9.58;100.00
68986;BME280;56035;37.534;-122.308;2023-05-25T09:08:15;100960.75;;;9.55;100.00
68986;BME280;56035;37.534;-122.308;2023-05-25T09:10:41;100957.38;;;9.53;100.00
68986;BME280;56035;37.534;-122.308;2023-05-25T09:13:08;100955.94;;;9.51;100.00
68986;BME280;56035;37.534;-122.308;2023-05-25T09:15:33;100956.19;;;9.49;100.00
68986;BME280;56035;37.534;-122.308;2023-05-25T09:17:59;100957.00;;;9.50;100.00
68986;BME280;56035;37.534;-122.308;2023-05-25T09:20:26;100956.19;;;9.49;100.00
68986;BME280;56035;37.534;-122.308;2023-05-25T09:23:01;100960.59;;;9.50;100.00
68986;BME280;56035;37.534;-122.308;2023-05-25T09:25:27;100956.63;;;9.46;100.00
68986;BME280;56035;37.534;-122.308;2023-05-25T09:27:54;100956.84;;;9.45;100.00
68986;BME280;56035;37.534;-122.308;2023-05-25T09:30:22;100942.03;;;9.46;100.00
68986;BME280;56035;37.534;-122.308;2023-05-25T09:32:48;100947.53;;;9.46;100.00
68986;BME280;56035;37.534;-122.308;2023-05-25T09:35:14;100950.50;;;9.44;100.00
68986;BME280;56035;37.534;-122.308;2023-05-25T09:37:41;100947.38;;;9.41;100.00
68986;BME280;56035;37.534;-122.308;2023-05-25T09:40:07;100940.44;;;9.38;100.00
68986;BME280;56035;37.534;-122.308;2023-05-25T09:42:35;100940.66;;;9.36;100.00
68986;BME280;56035;37.534;-122.308;2023-05-25T09:45:01;100942.59;;;9.36;100.00
68986;BME280;56035;37.534;-122.308;2023-05-25T09:47:27;100941.97;;;9.34;100.00
68986;BME280;56035;37.534;-122.308;2023-05-25T09:49:53;100939.66;;;9.31;100.00
68986;BME280;56035;37.534;-122.308;2023-05-25T09:52:20;100945.16;;;9.31;100.00
68986;BME280;56035;37.534;-122.308;2023-05-25T09:55:07;100947.91;;;9.31;100.00
68986;BME280;56035;37.534;-122.308;2023-05-25T09:57:34;100955.94;;;9.32;100.00
68986;BME280;56035;37.534;-122.308;2023-05-25T10:00:00;100950.66;;;9.31;100.00
68986;BME280;56035;37.534;-122.308;2023-05-25T10:02:29;100958.25;;;9.35;100.00
68986;BME280;56035;37.534;-122.308;2023-05-25T10:04:55;100958.00;;;9.37;100.00
68986;BME280;56035;37.534;-122.308;2023-05-25T10:07:21;100959.22;;;9.41;100.00
68986;BME280;56035;37.534;-122.308;2023-05-25T10:09:47;100961.69;;;9.49;100.00
68986;BME280;56035;37.534;-122.308;2023-05-25T10:12:18;100970.44;;;9.58;100.00
68986;BME280;56035;37.534;-122.308;2023-05-25T10:14:45;100960.22;;;9.65;100.00
68986;BME280;56035;37.534;-122.308;2023-05-25T10:17:10;100964.38;;;9.68;100.00
68986;BME280;56035;37.534;-122.308;2023-05-25T10:19:45;100960.97;;;9.72;100.00
68986;BME280;56035;37.534;-122.308;2023-05-25T10:24:50;100965.91;;;9.82;100.00
68986;BME280;56035;37.534;-122.308;2023-05-25T10:27:20;100958.88;;;9.86;100.00
68986;BME280;56035;37.534;-122.308;2023-05-25T10:29:47;100956.72;;;9.88;100.00
68986;BME280;56035;37.534;-122.308;2023-05-25T10:32:15;100948.00;;;9.91;100.00
68986;BME280;56035;37.534;-122.308;2023-05-25T10:34:40;100962.34;;;9.93;100.00
68986;BME280;56035;37.534;-122.308;2023-05-25T10:37:06;100953.88;;;9.95;100.00
68986;BME280;56035;37.534;-122.308;2023-05-25T10:39:33;100940.97;;;9.95;100.00
68986;BME280;56035;37.534;-122.308;2023-05-25T10:42:00;100949.84;;;9.97;100.00
68986;BME280;56035;37.534;-122.308;2023-05-25T10:44:27;100943.25;;;9.98;100.00
68986;BME280;56035;37.534;-122.308;2023-05-25T10:46:53;100944.09;;;9.99;100.00
68986;BME280;56035;37.534;-122.308;2023-05-25T10:49:53;100937.28;;;10.01;100.00
68986;BME280;56035;37.534;-122.308;2023-05-25T10:52:11;100941.47;;;10.04;100.00
68986;BME280;56035;37.534;-122.308;2023-05-25T10:54:42;100929.38;;;10.05;100.00
68986;BME280;56035;37.534;-122.308;2023-05-25T10:57:09;100935.72;;;10.05;100.00
68986;BME280;56035;37.534;-122.308;2023-05-25T10:59:39;100933.59;;;10.07;100.00
68986;BME280;56035;37.534;-122.308;2023-05-25T11:02:05;100929.75;;;10.08;100.00
68986;BME280;56035;37.534;-122.308;2023-05-25T11:04:31;100922.94;;;10.11;100.00
68986;BME280;56035;37.534;-122.308;2023-05-25T11:09:30;100926.28;;;10.13;100.00
68986;BME280;56035;37.534;-122.308;2023-05-25T11:19:42;100916.59;;;10.11;100.00
68986;BME280;56035;37.534;-122.308;2023-05-25T11:22:12;100922.13;;;10.11;100.00
68986;BME280;56035;37.534;-122.308;2023-05-25T11:24:38;100918.28;;;10.12;100.00
68986;BME280;56035;37.534;-122.308;2023-05-25T11:27:04;100915.53;;;10.12;100.00
68986;BME280;56035;37.534;-122.308;2023-05-25T11:29:31;100912.53;;;10.13;100.00
68986;BME280;56035;37.534;-122.308;2023-05-25T11:31:57;100913.38;;;10.14;100.00
68986;BME280;56035;37.534;-122.308;2023-05-25T11:34:24;100901.28;;;10.15;100.00
68986;BME280;56035;37.534;-122.308;2023-05-25T11:36:57;100910.13;;;10.17;100.00
68986;BME280;56035;37.534;-122.308;2023-05-25T11:39:26;100911.84;;;10.18;100.00
68986;BME280;56035;37.534;-122.308;2023-05-25T11:41:53;100915.41;;;10.18;100.00
68986;BME280;56035;37.534;-122.308;2023-05-25T11:44:30;100911.34;;;10.21;100.00
68986;BME280;56035;37.534;-122.308;2023-05-25T11:47:00;100915.78;;;10.22;100.00
68986;BME280;56035;37.534;-122.308;2023-05-25T11:49:26;100907.28;;;10.23;100.00
68986;BME280;56035;37.534;-122.308;2023-05-25T11:51:53;100910.63;;;10.25;100.00
68986;BME280;56035;37.534;-122.308;2023-05-25T11:54:22;100904.28;;;10.25;100.00
68986;BME280;56035;37.534;-122.308;2023-05-25T11:56:48;100905.78;;;10.27;100.00
68986;BME280;56035;37.534;-122.308;2023-05-25T11:59:14;100899.44;;;10.27;100.00
68986;BME280;56035;37.534;-122.308;2023-05-25T12:01:41;100909.97;;;10.30;100.00
68986;BME280;56035;37.534;-122.308;2023-05-25T12:04:10;100901.72;;;10.30;100.00
68986;BME280;56035;37.534;-122.308;2023-05-25T12:06:35;100906.97;;;10.31;100.00
68986;BME280;56035;37.534;-122.308;2023-05-25T12:09:02;100900.38;;;10.32;100.00
68986;BME280;56035;37.534;-122.308;2023-05-25T12:11:33;100900.16;;;10.34;100.00
68986;BME280;56035;37.534;-122.308;2023-05-25T12:14:00;100906.25;;;10.36;100.00
68986;BME280;56035;37.534;-122.308;2023-05-25T12:16:26;100894.19;;;10.37;100.00
68986;BME280;56035;37.534;-122.308;2023-05-25T12:18:52;100898.25;;;10.35;100.00
68986;BME280;56035;37.534;-122.308;2023-05-25T12:21:19;100891.44;;;10.37;100.00
68986;BME280;56035;37.534;-122.308;2023-05-25T12:24:05;100896.69;;;10.39;100.00
68986;BME280;56035;37.534;-122.308;2023-05-25T12:26:31;100894.75;;;10.39;100.00
68986;BME280;56035;37.534;-122.308;2023-05-25T12:28:57;100893.72;;;10.40;100.00
68986;BME280;56035;37.534;-122.308;2023-05-25T12:31:25;100896.47;;;10.40;100.00